createdAt,value
2023-01-31T00:00:39.060Z,3.80
2023-01-31T00:03:09.705Z,3.80
2023-01-31T00:05:38.635Z,3.70
2023-01-31T00:08:07.780Z,3.80
2023-01-31T00:10:37.357Z,3.80
2023-01-31T00:13:06.358Z,3.80
2023-01-31T00:15:35.445Z,3.80
2023-01-31T00:18:04.803Z,3.70
2023-01-31T00:20:35.336Z,3.80
2023-01-31T00:23:04.366Z,3.80
2023-01-31T00:25:33.195Z,3.80
2023-01-31T00:28:01.863Z,3.70
2023-01-31T00:30:30.887Z,3.70
2023-01-31T00:32:59.684Z,3.60
2023-01-31T00:35:28.724Z,3.60
2023-01-31T00:38:00.272Z,3.60
2023-01-31T00:40:29.069Z,3.70
2023-01-31T00:42:57.961Z,3.80
2023-01-31T00:45:26.757Z,3.70
2023-01-31T00:47:55.707Z,3.80
2023-01-31T00:50:24.524Z,3.70
2023-01-31T00:52:53.538Z,3.70
2023-01-31T00:55:23.987Z,3.80
2023-01-31T00:57:53.092Z,3.70
2023-01-31T01:00:22.956Z,3.60
2023-01-31T01:02:51.860Z,3.60
2023-01-31T01:05:21.365Z,3.70
2023-01-31T01:07:50.284Z,3.70
2023-01-31T01:10:19.273Z,3.70
2023-01-31T01:12:49.421Z,3.70
2023-01-31T01:15:18.901Z,3.70
2023-01-31T01:17:48.623Z,3.60
2023-01-31T01:20:18.303Z,3.60
2023-01-31T01:22:47.109Z,3.60
2023-01-31T01:25:16.083Z,3.60
2023-01-31T01:27:44.824Z,3.70
2023-01-31T01:30:15.811Z,3.70
2023-01-31T01:32:45.054Z,3.60
2023-01-31T01:35:14.382Z,3.60
2023-01-31T01:37:43.414Z,3.60
2023-01-31T01:40:13.109Z,3.60
2023-01-31T01:42:41.872Z,3.50
2023-01-31T01:45:19.379Z,3.60
2023-01-31T01:47:52.532Z,3.60
2023-01-31T01:50:26.529Z,3.50
2023-01-31T01:52:59.162Z,3.50
2023-01-31T01:55:32.272Z,3.40
2023-01-31T01:58:07.691Z,3.50
2023-01-31T02:00:39.919Z,3.40
2023-01-31T02:03:10.390Z,3.40
2023-01-31T02:05:43.593Z,3.30
2023-01-31T02:08:13.391Z,3.40
2023-01-31T02:10:49.396Z,3.30
2023-01-31T02:13:18.675Z,3.30
2023-01-31T02:15:49.973Z,3.30
2023-01-31T02:18:22.019Z,3.30
2023-01-31T02:21:33.480Z,3.20
2023-01-31T02:24:38.797Z,3.20
2023-01-31T02:27:41.676Z,3.20
2023-01-31T02:30:42.558Z,3.40
2023-01-31T02:33:22.865Z,3.30
2023-01-31T02:36:05.228Z,3.30
2023-01-31T02:38:46.918Z,3.30
2023-01-31T02:41:20.740Z,3.30
2023-01-31T02:44:13.286Z,3.30
2023-01-31T02:46:51.880Z,3.30
2023-01-31T02:49:35.617Z,3.30
2023-01-31T02:52:20.429Z,3.20
2023-01-31T02:55:20.024Z,3.20
2023-01-31T02:57:51.693Z,3.20
2023-01-31T03:00:23.636Z,3.20
2023-01-31T03:02:52.801Z,3.20
2023-01-31T03:05:24.118Z,3.20
2023-01-31T03:07:56.021Z,3.10
2023-01-31T03:10:42.226Z,3.20
2023-01-31T03:13:27.189Z,3.20
2023-01-31T03:16:21.357Z,3.20
2023-01-31T03:18:58.720Z,3.20
2023-01-31T03:21:35.025Z,3.20
2023-01-31T03:24:07.173Z,3.10
2023-01-31T03:26:36.903Z,3.10
2023-01-31T03:29:07.956Z,3.20
2023-01-31T03:31:42.642Z,3.20
2023-01-31T03:34:14.392Z,3.20
2023-01-31T03:36:53.256Z,3.10
2023-01-31T03:39:55.185Z,3.20
2023-01-31T03:42:29.969Z,3.20
2023-01-31T03:45:03.943Z,3.20
2023-01-31T03:47:36.886Z,3.20
2023-01-31T03:50:12.324Z,3.20
2023-01-31T03:52:47.637Z,3.20
2023-01-31T03:55:20.487Z,3.20
2023-01-31T03:57:54.176Z,3.10
2023-01-31T04:00:25.538Z,3.10
2023-01-31T04:03:05.723Z,3.20
2023-01-31T04:05:35.463Z,3.20
2023-01-31T04:08:07.698Z,3.20
2023-01-31T04:10:37.445Z,3.10
2023-01-31T04:13:06.277Z,3.10
2023-01-31T04:15:35.362Z,3.10
2023-01-31T04:18:04.428Z,3.10
2023-01-31T04:20:33.456Z,3.20
2023-01-31T04:23:02.520Z,3.10
2023-01-31T04:25:33.637Z,3.10
2023-01-31T04:28:02.401Z,3.10
2023-01-31T04:30:32.012Z,3.10
2023-01-31T04:33:01.107Z,3.10
2023-01-31T04:35:30.132Z,3.10
2023-01-31T04:37:58.800Z,3.10
2023-01-31T04:40:27.533Z,3.10
2023-01-31T04:42:58.193Z,3.10
2023-01-31T04:45:26.979Z,3.00
2023-01-31T04:47:55.982Z,3.00
2023-01-31T04:50:24.956Z,3.00
2023-01-31T04:52:54.018Z,3.10
2023-01-31T04:55:23.122Z,3.10
2023-01-31T04:57:51.772Z,3.00
2023-01-31T05:00:23.418Z,3.00
2023-01-31T05:02:53.048Z,3.00
2023-01-31T05:05:22.622Z,3.00
2023-01-31T05:07:51.494Z,3.00
2023-01-31T05:10:20.687Z,3.00
2023-01-31T05:12:49.772Z,3.00
2023-01-31T05:15:19.184Z,3.00
2023-01-31T05:17:54.448Z,3.00
2023-01-31T05:20:23.093Z,3.00
2023-01-31T05:22:52.100Z,3.00
2023-01-31T05:25:21.541Z,3.00
2023-01-31T05:27:50.986Z,3.00
2023-01-31T05:30:20.313Z,3.00
2023-01-31T05:32:50.199Z,3.00
2023-01-31T05:35:21.383Z,3.00
2023-01-31T05:37:50.436Z,3.00
2023-01-31T05:40:19.467Z,3.00
2023-01-31T05:42:55.146Z,3.00
2023-01-31T05:45:24.703Z,2.90
2023-01-31T05:47:54.032Z,2.90
2023-01-31T05:50:24.908Z,2.90
2023-01-31T05:52:55.052Z,2.90
2023-01-31T05:55:24.680Z,2.80
2023-01-31T05:57:53.594Z,2.90
2023-01-31T06:00:23.554Z,2.90
2023-01-31T06:02:52.639Z,2.90
2023-01-31T06:05:21.849Z,2.90
2023-01-31T06:07:52.541Z,2.90
2023-01-31T06:10:22.528Z,2.90
2023-01-31T06:12:51.339Z,2.80
2023-01-31T06:15:20.418Z,2.90
2023-01-31T06:17:49.589Z,3.00
2023-01-31T06:20:18.862Z,2.90
2023-01-31T06:22:47.531Z,2.90
2023-01-31T06:25:18.307Z,2.90
2023-01-31T06:27:47.399Z,2.90
2023-01-31T06:30:16.616Z,2.80
2023-01-31T06:32:45.588Z,2.80
2023-01-31T06:35:14.492Z,2.80
2023-01-31T06:37:43.198Z,2.80
2023-01-31T06:40:13.352Z,2.70
2023-01-31T06:42:43.651Z,2.70
2023-01-31T06:45:13.012Z,2.70
2023-01-31T06:47:42.086Z,2.80
2023-01-31T06:50:12.171Z,2.80
2023-01-31T06:52:41.439Z,2.80
2023-01-31T06:55:11.622Z,2.80
2023-01-31T06:57:48.650Z,2.70
2023-01-31T07:00:19.860Z,2.60
2023-01-31T07:02:49.619Z,2.50
2023-01-31T07:05:18.875Z,2.50
2023-01-31T07:07:48.576Z,2.50
2023-01-31T07:10:17.910Z,2.50
2023-01-31T07:12:48.348Z,2.60
2023-01-31T07:15:17.433Z,2.60
2023-01-31T07:17:46.308Z,2.60
2023-01-31T07:20:15.343Z,2.60
2023-01-31T07:22:44.225Z,2.60
2023-01-31T07:25:12.924Z,2.60
2023-01-31T07:27:42.030Z,2.60
2023-01-31T07:30:14.558Z,2.60
2023-01-31T07:32:43.561Z,2.60
2023-01-31T07:35:12.497Z,2.70
2023-01-31T07:37:43.523Z,2.70
2023-01-31T07:40:14.325Z,2.70
2023-01-31T07:42:43.627Z,2.80
2023-01-31T07:45:33.484Z,2.80
2023-01-31T07:48:02.611Z,2.80
2023-01-31T07:50:32.226Z,2.80
2023-01-31T07:53:01.355Z,2.80
2023-01-31T07:55:30.783Z,2.90
2023-01-31T07:57:59.833Z,2.90
2023-01-31T08:00:47.448Z,2.90
2023-01-31T08:03:34.827Z,2.90
2023-01-31T08:06:06.368Z,2.90
2023-01-31T08:08:35.279Z,3.00
2023-01-31T08:11:05.153Z,3.00
2023-01-31T08:13:35.247Z,3.00
2023-01-31T08:16:07.703Z,3.10
2023-01-31T08:18:37.481Z,3.10
2023-01-31T08:21:07.089Z,3.10
2023-01-31T08:23:38.175Z,3.10
2023-01-31T08:26:10.538Z,3.10
2023-01-31T08:28:40.183Z,3.10
2023-01-31T08:31:15.687Z,3.10
2023-01-31T08:33:45.052Z,3.10
2023-01-31T08:36:17.887Z,3.10
2023-01-31T08:38:47.061Z,3.20
2023-01-31T08:41:16.846Z,3.20
2023-01-31T08:43:56.274Z,3.20
2023-01-31T08:46:30.933Z,3.20
2023-01-31T08:49:00.611Z,3.40
2023-01-31T08:51:30.316Z,3.40
2023-01-31T08:53:59.486Z,3.40
2023-01-31T08:56:28.877Z,3.40
2023-01-31T08:58:59.486Z,3.40
2023-01-31T09:01:30.459Z,3.40
2023-01-31T09:03:59.584Z,3.40
2023-01-31T09:06:29.201Z,3.50
2023-01-31T09:08:59.399Z,3.50
2023-01-31T09:11:30.644Z,3.50
2023-01-31T09:13:59.907Z,3.40
2023-01-31T09:16:30.299Z,3.40
2023-01-31T09:18:59.369Z,3.40
2023-01-31T09:21:28.664Z,3.40
2023-01-31T09:23:59.783Z,3.40
2023-01-31T09:26:29.752Z,3.50
2023-01-31T09:29:01.419Z,3.40
2023-01-31T09:31:32.352Z,3.50
2023-01-31T09:34:01.105Z,3.50
2023-01-31T09:36:30.304Z,3.50
2023-01-31T09:38:59.570Z,3.60
2023-01-31T09:41:36.591Z,3.60
2023-01-31T09:44:08.188Z,3.70
2023-01-31T09:46:42.952Z,3.90
2023-01-31T09:49:19.492Z,4.00
2023-01-31T09:51:53.923Z,4.10
2023-01-31T09:54:29.404Z,4.10
2023-01-31T09:57:05.769Z,4.10
2023-01-31T09:59:43.777Z,4.10
2023-01-31T10:02:31.918Z,4.10
2023-01-31T10:05:16.067Z,4.00
2023-01-31T10:07:51.130Z,3.90
2023-01-31T10:10:30.364Z,4.00
2023-01-31T10:13:04.720Z,4.00
2023-01-31T10:15:40.986Z,4.00
2023-01-31T10:18:18.024Z,3.90
2023-01-31T10:20:51.925Z,3.90
2023-01-31T10:23:27.999Z,3.90
2023-01-31T10:26:02.003Z,3.80
2023-01-31T10:28:37.223Z,3.80
2023-01-31T10:31:13.478Z,5.30
2023-01-31T10:33:49.523Z,4.00
2023-01-31T10:36:26.352Z,4.00
2023-01-31T10:39:02.052Z,4.20
2023-01-31T10:41:44.188Z,4.20
2023-01-31T10:44:22.059Z,4.20
2023-01-31T10:46:52.570Z,4.30
2023-01-31T10:49:25.717Z,4.30
2023-01-31T10:52:13.583Z,4.20
2023-01-31T10:54:55.057Z,4.00
2023-01-31T10:57:24.547Z,4.00
2023-01-31T10:59:55.191Z,4.00
2023-01-31T11:02:25.629Z,4.00
2023-01-31T11:04:58.015Z,3.90
2023-01-31T11:07:29.789Z,4.00
2023-01-31T11:09:59.048Z,4.10
2023-01-31T11:12:43.260Z,4.10
2023-01-31T11:15:18.447Z,4.10
2023-01-31T11:17:49.043Z,4.20
2023-01-31T11:20:26.171Z,4.20
2023-01-31T11:22:57.189Z,4.20
2023-01-31T11:25:27.682Z,4.30
2023-01-31T11:28:00.212Z,4.30
2023-01-31T11:30:32.538Z,4.30
2023-01-31T11:33:02.123Z,4.30
2023-01-31T11:35:33.505Z,4.40
2023-01-31T11:38:04.594Z,4.40
2023-01-31T11:40:35.488Z,4.30
2023-01-31T11:43:06.829Z,4.20
2023-01-31T11:45:37.729Z,4.20
2023-01-31T11:48:18.518Z,4.20
2023-01-31T11:50:55.146Z,4.20
2023-01-31T11:53:27.442Z,4.20
2023-01-31T11:55:58.841Z,4.20
2023-01-31T11:58:34.176Z,4.20
2023-01-31T12:01:07.909Z,4.20
2023-01-31T12:03:43.817Z,4.20
2023-01-31T12:06:31.138Z,4.20
2023-01-31T12:09:02.554Z,4.20
2023-01-31T12:11:32.970Z,4.10
2023-01-31T12:14:14.708Z,4.10
2023-01-31T12:16:44.885Z,4.10
2023-01-31T12:19:26.242Z,4.10
2023-01-31T12:22:05.035Z,4.10
2023-01-31T12:24:48.896Z,4.20
2023-01-31T12:27:29.484Z,4.10
2023-01-31T12:30:29.262Z,4.10
2023-01-31T12:33:14.525Z,4.10
2023-01-31T12:35:55.423Z,4.00
2023-01-31T12:38:45.919Z,4.00
2023-01-31T12:41:28.010Z,4.00
2023-01-31T12:44:17.913Z,3.90
2023-01-31T12:47:09.993Z,3.90
2023-01-31T12:50:06.055Z,3.90
2023-01-31T12:52:44.802Z,3.90
2023-01-31T12:55:27.209Z,3.90
2023-01-31T12:58:12.740Z,3.90
2023-01-31T13:00:48.395Z,4.00
2023-01-31T13:03:40.265Z,3.90
2023-01-31T13:06:15.620Z,3.80
2023-01-31T13:09:01.594Z,3.70
2023-01-31T13:11:42.263Z,3.70
2023-01-31T13:14:16.796Z,3.60
2023-01-31T13:16:47.638Z,3.60
2023-01-31T13:19:21.544Z,3.50
2023-01-31T13:21:55.432Z,3.50
2023-01-31T13:24:29.996Z,3.50
2023-01-31T13:27:04.824Z,3.60
2023-01-31T13:29:39.900Z,3.60
2023-01-31T13:32:15.293Z,3.60
2023-01-31T13:34:51.865Z,3.70
2023-01-31T13:37:22.210Z,3.70
2023-01-31T13:39:53.822Z,3.70
2023-01-31T13:42:23.880Z,3.80
2023-01-31T13:44:53.888Z,3.80
2023-01-31T13:47:26.909Z,3.80
2023-01-31T13:50:00.857Z,3.80
2023-01-31T13:52:34.485Z,3.80
2023-01-31T13:55:09.353Z,3.80
2023-01-31T13:57:46.970Z,3.80
2023-01-31T14:00:35.062Z,3.90
2023-01-31T14:03:06.242Z,3.80
2023-01-31T14:05:56.248Z,3.80
2023-01-31T14:08:37.004Z,3.80
2023-01-31T14:11:44.365Z,3.80
2023-01-31T14:14:31.257Z,3.70
2023-01-31T14:17:00.263Z,3.80
2023-01-31T14:19:55.133Z,3.80
2023-01-31T14:22:26.066Z,3.70
2023-01-31T14:25:00.399Z,3.70
2023-01-31T14:27:34.427Z,3.70
2023-01-31T14:30:13.627Z,3.70
2023-01-31T14:32:45.781Z,3.60
2023-01-31T14:35:32.217Z,3.60
2023-01-31T14:38:11.632Z,3.50
2023-01-31T14:40:48.656Z,3.50
2023-01-31T14:43:37.395Z,3.50
2023-01-31T14:46:18.424Z,3.50
2023-01-31T14:49:19.291Z,3.50
2023-01-31T14:52:10.166Z,3.40
2023-01-31T14:54:54.536Z,3.40
2023-01-31T14:57:26.976Z,3.40
2023-01-31T15:00:02.530Z,3.40
2023-01-31T15:02:52.189Z,3.40
2023-01-31T15:05:25.884Z,3.40
2023-01-31T15:08:07.991Z,3.40
2023-01-31T15:11:02.123Z,3.40
2023-01-31T15:13:45.477Z,3.40
2023-01-31T15:16:25.604Z,3.30
2023-01-31T15:19:08.379Z,3.30
2023-01-31T15:21:44.181Z,3.30
2023-01-31T15:24:20.493Z,3.30
2023-01-31T15:26:50.952Z,3.30
2023-01-31T15:29:29.043Z,3.30
2023-01-31T15:32:06.807Z,3.30
2023-01-31T15:34:47.723Z,3.30
2023-01-31T15:37:22.928Z,3.30
2023-01-31T15:39:56.492Z,3.30
2023-01-31T15:42:27.121Z,3.30
2023-01-31T15:45:13.912Z,3.30
2023-01-31T15:47:44.561Z,3.20
2023-01-31T15:50:18.181Z,3.30
2023-01-31T15:52:48.525Z,3.30
2023-01-31T15:55:19.981Z,3.20
2023-01-31T15:57:55.302Z,3.20
2023-01-31T16:00:27.436Z,3.20
2023-01-31T16:03:02.221Z,3.30
2023-01-31T16:05:33.216Z,3.30
2023-01-31T16:08:04.096Z,3.30
2023-01-31T16:10:33.539Z,3.30
2023-01-31T16:13:03.110Z,3.30
2023-01-31T16:15:33.356Z,3.30
2023-01-31T16:18:04.332Z,3.30
2023-01-31T16:20:43.679Z,3.20
2023-01-31T16:23:28.615Z,3.20
2023-01-31T16:26:07.035Z,3.20
2023-01-31T16:28:42.325Z,3.30
2023-01-31T16:31:13.040Z,3.30
2023-01-31T16:33:50.093Z,3.20
2023-01-31T16:36:23.751Z,3.20
2023-01-31T16:38:59.176Z,3.30
2023-01-31T16:41:44.218Z,3.30
2023-01-31T16:44:16.747Z,3.20
2023-01-31T16:46:48.226Z,3.20
2023-01-31T16:49:24.666Z,3.20
2023-01-31T16:51:56.993Z,3.20
2023-01-31T16:54:27.554Z,3.20
2023-01-31T16:57:08.842Z,3.30
2023-01-31T16:59:46.162Z,3.20
2023-01-31T17:02:21.436Z,3.20
2023-01-31T17:04:53.901Z,3.20
2023-01-31T17:07:25.108Z,3.30
2023-01-31T17:09:58.928Z,3.20
2023-01-31T17:12:30.136Z,3.30
2023-01-31T17:15:02.903Z,3.30
2023-01-31T17:17:34.398Z,3.20
2023-01-31T17:20:05.076Z,3.20
2023-01-31T17:22:34.376Z,3.20
2023-01-31T17:25:03.448Z,3.20
2023-01-31T17:27:32.508Z,3.20
2023-01-31T17:30:02.026Z,3.20
2023-01-31T17:32:32.296Z,3.20
2023-01-31T17:35:01.989Z,3.20
2023-01-31T17:37:32.566Z,3.30
2023-01-31T17:40:02.118Z,3.20
2023-01-31T17:42:31.328Z,3.20
2023-01-31T17:45:00.496Z,3.20
2023-01-31T17:47:29.621Z,3.20
2023-01-31T17:49:59.976Z,3.20
2023-01-31T17:52:29.089Z,3.20
2023-01-31T17:54:59.784Z,3.20
2023-01-31T17:57:28.991Z,3.20
2023-01-31T17:59:58.060Z,3.20
2023-01-31T18:02:27.335Z,3.20
2023-01-31T18:04:56.341Z,3.30
2023-01-31T18:07:25.551Z,3.30
2023-01-31T18:09:54.607Z,3.30
2023-01-31T18:12:25.639Z,3.30
2023-01-31T18:14:54.671Z,3.40
2023-01-31T18:17:23.800Z,3.40
2023-01-31T18:19:52.995Z,3.40
2023-01-31T18:22:22.956Z,3.40
2023-01-31T18:24:52.138Z,3.40
2023-01-31T18:27:21.506Z,3.40
2023-01-31T18:29:52.955Z,3.50
2023-01-31T18:32:22.533Z,3.50
2023-01-31T18:34:51.799Z,3.50
2023-01-31T18:37:21.494Z,3.50
2023-01-31T18:39:51.338Z,3.60
2023-01-31T18:42:21.457Z,3.60
2023-01-31T18:44:52.938Z,3.60
2023-01-31T18:47:22.263Z,3.60
2023-01-31T18:49:51.538Z,3.70
2023-01-31T18:52:21.089Z,3.70
2023-01-31T18:54:52.708Z,3.70
2023-01-31T18:57:21.884Z,3.70
2023-01-31T18:59:52.955Z,3.80
2023-01-31T19:02:23.007Z,3.80
2023-01-31T19:04:52.132Z,3.80
2023-01-31T19:07:21.226Z,3.80
2023-01-31T19:09:50.364Z,3.80
2023-01-31T19:12:19.484Z,3.80
2023-01-31T19:14:48.608Z,3.90
2023-01-31T19:17:20.477Z,3.90
2023-01-31T19:19:50.770Z,3.90
2023-01-31T19:22:19.629Z,4.00
2023-01-31T19:24:48.367Z,4.00
2023-01-31T19:27:17.341Z,4.00
2023-01-31T19:29:46.358Z,4.00
2023-01-31T19:32:15.322Z,4.10
2023-01-31T19:34:45.755Z,4.10
2023-01-31T19:37:15.255Z,4.10
2023-01-31T19:39:44.256Z,4.20
2023-01-31T19:42:13.195Z,4.20
2023-01-31T19:44:42.476Z,4.20
2023-01-31T19:47:11.676Z,4.20
2023-01-31T19:49:40.749Z,4.20
2023-01-31T19:52:11.783Z,4.30
2023-01-31T19:54:41.948Z,4.30
2023-01-31T19:57:11.598Z,4.30
2023-01-31T19:59:42.219Z,4.40
2023-01-31T20:02:13.721Z,4.40
2023-01-31T20:04:43.295Z,4.40
2023-01-31T20:07:15.004Z,4.40
2023-01-31T20:09:45.192Z,4.40
2023-01-31T20:12:15.375Z,4.40
2023-01-31T20:14:44.718Z,4.40
2023-01-31T20:17:14.200Z,4.40
2023-01-31T20:19:45.808Z,4.40
2023-01-31T20:22:19.972Z,4.40
2023-01-31T20:24:50.039Z,4.40
2023-01-31T20:27:19.799Z,4.40
2023-01-31T20:29:49.460Z,4.40
2023-01-31T20:32:19.867Z,4.40
2023-01-31T20:34:49.676Z,4.40
2023-01-31T20:37:20.380Z,4.50
2023-01-31T20:39:50.052Z,4.50
2023-01-31T20:42:19.425Z,4.50
2023-01-31T20:44:48.706Z,4.50
2023-01-31T20:47:18.309Z,4.70
2023-01-31T20:49:47.637Z,4.80
2023-01-31T20:52:17.381Z,4.80
2023-01-31T20:54:48.726Z,4.80
2023-01-31T20:57:19.901Z,4.80
2023-01-31T20:59:49.275Z,4.80
2023-01-31T21:02:18.518Z,4.80
2023-01-31T21:04:48.072Z,4.90
2023-01-31T21:07:17.167Z,4.90
2023-01-31T21:09:48.478Z,4.90
2023-01-31T21:12:17.891Z,4.80
2023-01-31T21:14:46.760Z,4.80
2023-01-31T21:17:16.110Z,4.80
2023-01-31T21:34:17.077Z,4.70
2023-01-31T21:36:46.291Z,4.60
2023-01-31T21:39:15.867Z,4.10
2023-01-31T21:42:02.520Z,3.80
2023-01-31T21:44:31.661Z,3.80
2023-01-31T21:47:00.438Z,3.80
2023-01-31T21:49:30.517Z,3.80
2023-01-31T21:51:59.263Z,3.90
2023-01-31T21:54:28.515Z,3.80
2023-01-31T21:56:57.241Z,3.70
2023-01-31T21:59:26.512Z,3.70
2023-01-31T22:01:55.346Z,3.60
2023-01-31T22:04:24.153Z,3.50
2023-01-31T22:06:55.612Z,3.50
2023-01-31T22:09:24.763Z,3.50
2023-01-31T22:11:54.583Z,3.50
2023-01-31T22:14:23.423Z,3.40
2023-01-31T22:16:52.925Z,3.40
2023-01-31T22:19:21.829Z,3.40
2023-01-31T22:21:50.562Z,3.30
2023-01-31T22:24:21.285Z,3.30
2023-01-31T22:26:50.042Z,3.30
2023-01-31T22:42:42.201Z,3.20
2023-01-31T22:45:12.302Z,3.10
2023-01-31T22:47:41.375Z,3.00
2023-01-31T22:50:11.206Z,3.00
2023-01-31T22:52:40.034Z,3.00
2023-01-31T22:55:09.224Z,2.90
2023-01-31T22:57:38.093Z,2.90
2023-01-31T23:00:10.235Z,2.90
2023-01-31T23:14:46.643Z,2.80
2023-01-31T23:17:33.024Z,3.10
2023-01-31T23:20:01.870Z,3.10
2023-01-31T23:22:30.663Z,2.90
2023-01-31T23:24:59.532Z,3.00
2023-01-31T23:27:28.619Z,3.00
2023-01-31T23:29:58.783Z,3.00
2023-01-31T23:32:27.573Z,3.00
2023-01-31T23:34:56.843Z,3.00
2023-01-31T23:37:25.697Z,2.90
2023-01-31T23:39:54.519Z,2.90
2023-01-31T23:42:23.288Z,3.00
2023-01-31T23:44:52.533Z,3.00
2023-01-31T23:47:22.557Z,3.10
2023-01-31T23:49:51.420Z,3.10
2023-01-31T23:52:20.300Z,3.00
2023-01-31T23:54:49.140Z,3.10
2023-01-31T23:57:17.847Z,3.10
2023-01-31T23:59:47.118Z,3.10
